createdAt,value
2022-11-13T00:02:50.969Z,13.89
2022-11-13T00:07:50.883Z,10.30
2022-11-13T00:12:50.822Z,12.30
2022-11-13T00:17:50.748Z,13.50
2022-11-13T00:22:50.692Z,15.30
2022-11-13T00:27:50.616Z,13.89
2022-11-13T00:32:50.557Z,15.00
2022-11-13T00:37:50.486Z,16.70
2022-11-13T00:42:50.428Z,19.70
2022-11-13T00:47:50.354Z,19.00
2022-11-13T00:52:50.294Z,22.00
2022-11-13T00:57:50.222Z,24.00
2022-11-13T01:02:50.162Z,19.20
2022-11-13T01:07:50.092Z,19.29
2022-11-13T01:12:50.031Z,15.19
2022-11-13T01:17:49.958Z,18.00
2022-11-13T01:22:49.901Z,17.20
2022-11-13T01:27:49.825Z,19.60
2022-11-13T01:32:49.779Z,18.79
2022-11-13T01:37:49.692Z,16.89
2022-11-13T01:42:49.637Z,17.79
2022-11-13T01:47:49.563Z,19.00
2022-11-13T01:52:49.502Z,15.69
2022-11-13T01:57:49.429Z,19.89
2022-11-13T02:02:49.371Z,16.70
2022-11-13T02:07:49.297Z,16.60
2022-11-13T02:12:49.240Z,16.00
2022-11-13T02:17:49.168Z,15.69
2022-11-13T02:22:49.111Z,13.80
2022-11-13T02:27:49.035Z,15.60
2022-11-13T02:32:48.977Z,13.10
2022-11-13T02:37:48.909Z,14.50
2022-11-13T02:42:48.848Z,12.80
2022-11-13T02:47:48.775Z,14.60
2022-11-13T02:52:48.812Z,14.00
2022-11-13T02:57:48.642Z,15.39
2022-11-13T03:02:48.584Z,18.29
2022-11-13T03:07:48.511Z,19.20
2022-11-13T03:12:48.454Z,14.30
2022-11-13T03:17:48.380Z,12.10
2022-11-13T03:22:48.326Z,14.60
2022-11-13T03:27:48.251Z,16.39
2022-11-13T03:32:48.196Z,14.19
2022-11-13T03:37:48.119Z,11.89
2022-11-13T03:42:48.061Z,16.00
2022-11-13T03:47:47.988Z,13.50
2022-11-13T03:52:47.930Z,13.50
2022-11-13T03:57:47.857Z,11.69
2022-11-13T04:02:47.798Z,15.19
2022-11-13T04:07:47.726Z,23.00
2022-11-13T04:12:47.667Z,17.50
2022-11-13T04:17:47.595Z,14.60
2022-11-13T04:22:47.541Z,18.79
2022-11-13T04:27:47.471Z,15.30
2022-11-13T04:32:47.413Z,16.79
2022-11-13T04:37:47.344Z,17.10
2022-11-13T04:42:47.287Z,13.80
2022-11-13T04:47:47.217Z,12.89
2022-11-13T04:52:47.171Z,11.69
2022-11-13T04:57:47.108Z,10.00
2022-11-13T05:02:47.037Z,11.50
2022-11-13T05:07:46.983Z,13.89
2022-11-13T05:12:46.910Z,12.10
2022-11-13T05:17:46.856Z,13.00
2022-11-13T05:22:46.784Z,15.89
2022-11-13T05:27:46.729Z,14.50
2022-11-13T05:32:46.661Z,15.80
2022-11-13T05:37:46.604Z,14.69
2022-11-13T05:42:46.536Z,20.79
2022-11-13T05:47:46.479Z,15.00
2022-11-13T05:52:46.405Z,15.30
2022-11-13T05:57:46.351Z,19.20
2022-11-13T06:02:46.279Z,12.30
2022-11-13T06:07:46.225Z,13.50
2022-11-13T06:12:46.152Z,25.29
2022-11-13T06:17:46.096Z,20.79
2022-11-13T06:22:46.026Z,14.60
2022-11-13T06:27:45.971Z,17.79
2022-11-13T06:32:45.900Z,23.79
2022-11-13T06:37:45.847Z,23.50
2022-11-13T06:42:45.774Z,13.10
2022-11-13T06:47:45.719Z,17.60
2022-11-13T06:52:45.648Z,13.60
2022-11-13T06:57:45.595Z,12.10
2022-11-13T07:02:45.521Z,15.89
2022-11-13T07:07:45.469Z,13.80
2022-11-13T07:12:45.398Z,15.60
2022-11-13T07:17:45.343Z,18.10
2022-11-13T07:22:45.275Z,25.39
2022-11-13T07:27:45.216Z,19.10
2022-11-13T07:32:45.145Z,16.29
2022-11-13T07:37:45.089Z,13.39
2022-11-13T07:42:45.020Z,14.10
2022-11-13T07:47:44.964Z,15.00
2022-11-13T07:52:44.893Z,13.80
2022-11-13T07:57:44.838Z,18.10
2022-11-13T08:02:44.770Z,14.60
2022-11-13T08:07:48.637Z,13.30
2022-11-13T08:12:44.638Z,20.29
2022-11-13T08:17:44.580Z,15.89
2022-11-13T08:22:44.507Z,15.89
2022-11-13T08:27:44.452Z,14.50
2022-11-13T08:32:44.378Z,13.39
2022-11-13T08:37:44.324Z,16.50
2022-11-13T08:42:44.253Z,13.69
2022-11-13T08:47:44.199Z,13.19
2022-11-13T08:52:44.128Z,15.80
2022-11-13T08:57:44.071Z,14.80
2022-11-13T09:02:43.998Z,15.30
2022-11-13T09:07:43.942Z,15.00
2022-11-13T09:12:43.874Z,13.60
2022-11-13T09:17:43.811Z,18.00
2022-11-13T09:22:43.740Z,12.19
2022-11-13T09:27:43.681Z,16.39
2022-11-13T09:32:43.611Z,10.69
2022-11-13T09:37:43.555Z,13.30
2022-11-13T09:42:43.487Z,16.20
2022-11-13T09:47:43.427Z,13.69
2022-11-13T09:52:43.357Z,13.39
2022-11-13T09:57:43.301Z,17.50
2022-11-13T10:02:43.227Z,15.60
2022-11-13T10:07:43.171Z,18.60
2022-11-13T10:12:43.098Z,13.50
2022-11-13T10:17:43.042Z,15.60
2022-11-13T10:22:43.075Z,17.39
2022-11-13T10:27:42.934Z,24.10
2022-11-13T10:32:42.842Z,24.89
2022-11-13T10:37:42.783Z,27.60
2022-11-13T10:42:42.709Z,22.60
2022-11-13T10:48:02.999Z,24.20
2022-11-13T10:52:43.608Z,24.60
2022-11-13T10:57:47.010Z,20.00
2022-11-13T11:02:42.449Z,21.70
2022-11-13T11:07:42.428Z,22.00
2022-11-13T11:12:42.342Z,21.50
2022-11-13T11:17:42.256Z,25.79
2022-11-13T11:22:42.185Z,26.79
2022-11-13T11:27:42.130Z,23.10
2022-11-13T11:32:42.052Z,21.60
2022-11-13T11:37:41.995Z,23.10
2022-11-13T11:42:41.921Z,19.79
2022-11-13T11:47:41.866Z,21.70
2022-11-13T11:52:41.835Z,22.60
2022-11-13T11:57:41.736Z,22.70
2022-11-13T12:02:41.663Z,22.20
2022-11-13T12:07:41.614Z,22.39
2022-11-13T12:12:41.544Z,23.29
2022-11-13T12:17:41.484Z,32.50
2022-11-13T12:22:41.407Z,32.00
2022-11-13T12:27:41.348Z,27.10
2022-11-13T12:32:41.278Z,29.70
2022-11-13T12:37:41.220Z,32.00
2022-11-13T12:42:41.148Z,29.20
2022-11-13T12:47:41.089Z,30.89
2022-11-13T12:52:41.013Z,31.00
2022-11-13T12:57:40.955Z,29.20
2022-11-13T13:02:40.885Z,30.70
2022-11-13T13:07:40.823Z,32.00
2022-11-13T13:12:40.745Z,28.70
2022-11-13T13:17:40.687Z,31.10
2022-11-13T13:22:40.611Z,30.20
2022-11-13T13:27:40.556Z,33.20
2022-11-13T13:32:40.479Z,29.60
2022-11-13T13:37:40.422Z,30.60
2022-11-13T13:42:40.350Z,28.00
2022-11-13T13:47:40.290Z,31.20
2022-11-13T13:52:40.216Z,30.89
2022-11-13T13:57:40.154Z,32.50
2022-11-13T14:02:40.083Z,29.60
2022-11-13T14:07:40.025Z,27.79
2022-11-13T14:12:39.957Z,29.20
2022-11-13T14:17:39.884Z,31.20
2022-11-13T14:22:39.827Z,30.10
2022-11-13T14:27:39.750Z,28.29
2022-11-13T14:32:44.266Z,29.89
2022-11-13T14:37:39.616Z,27.39
2022-11-13T14:42:39.556Z,31.00
2022-11-13T14:47:39.482Z,30.79
2022-11-13T14:52:39.423Z,29.39
2022-11-13T14:57:39.348Z,28.89
2022-11-13T15:02:39.293Z,31.39
2022-11-13T15:07:39.218Z,27.60
2022-11-13T15:12:39.161Z,27.60
2022-11-13T15:17:39.083Z,27.10
2022-11-13T15:22:39.026Z,29.60
2022-11-13T15:27:42.921Z,28.50
2022-11-13T15:32:38.895Z,28.20
2022-11-13T15:37:38.817Z,25.20
2022-11-13T15:42:38.759Z,25.29
2022-11-13T15:47:38.687Z,27.50
2022-11-13T15:52:38.625Z,27.10
2022-11-13T15:57:38.552Z,28.20
2022-11-13T16:02:38.494Z,23.70
2022-11-13T16:07:41.271Z,36.70
2022-11-13T16:12:38.360Z,29.60
2022-11-13T16:17:38.285Z,26.60
2022-11-13T16:22:38.229Z,30.10
2022-11-13T16:27:38.152Z,30.70
2022-11-13T16:32:38.095Z,32.50
2022-11-13T16:37:38.020Z,25.89
2022-11-13T16:42:37.968Z,30.29
2022-11-13T16:47:37.890Z,27.39
2022-11-13T16:52:37.832Z,27.79
2022-11-13T16:57:37.762Z,28.60
2022-11-13T17:02:37.705Z,29.60
2022-11-13T17:07:37.707Z,39.00
2022-11-13T17:12:37.577Z,39.79
2022-11-13T17:17:37.503Z,37.29
2022-11-13T17:22:37.448Z,41.20
2022-11-13T17:27:37.375Z,42.40
2022-11-13T17:32:37.319Z,42.09
2022-11-13T17:37:37.244Z,35.20
2022-11-13T17:42:37.186Z,34.70
2022-11-13T17:47:37.116Z,30.79
2022-11-13T17:52:37.057Z,37.59
2022-11-13T17:57:36.982Z,51.40
2022-11-13T18:02:36.926Z,44.40
2022-11-13T18:07:36.850Z,43.20
2022-11-13T18:12:36.792Z,47.79
2022-11-13T18:17:36.719Z,44.20
2022-11-13T18:22:36.657Z,46.20
2022-11-13T18:27:36.592Z,50.79
2022-11-13T18:32:36.531Z,48.59
2022-11-13T18:37:36.486Z,57.09
2022-11-13T18:42:36.399Z,64.00
2022-11-13T18:47:36.331Z,63.40
2022-11-13T18:52:36.272Z,60.90
2022-11-13T18:57:36.196Z,67.30
2022-11-13T19:02:36.139Z,101.09
2022-11-13T19:07:36.070Z,100.09
2022-11-13T19:12:36.012Z,79.90
2022-11-13T19:17:35.940Z,75.90
2022-11-13T19:22:35.883Z,75.09
2022-11-13T19:27:35.813Z,82.19
2022-11-13T19:32:35.757Z,85.00
2022-11-13T19:37:35.685Z,91.40
2022-11-13T19:42:40.647Z,76.90
2022-11-13T19:47:35.556Z,64.80
2022-11-13T19:52:35.497Z,64.59
2022-11-13T19:57:35.425Z,63.90
2022-11-13T20:02:35.375Z,58.79
2022-11-13T20:07:35.294Z,67.30
2022-11-13T20:12:35.247Z,72.40
2022-11-13T20:17:35.168Z,74.30
2022-11-13T20:22:35.116Z,68.30
2022-11-13T20:27:37.346Z,71.59
2022-11-13T20:32:34.979Z,64.59
2022-11-13T20:37:34.906Z,58.90
2022-11-13T20:42:34.848Z,50.20
2022-11-13T20:47:34.775Z,47.29
2022-11-13T20:52:34.715Z,51.20
2022-11-13T20:57:39.754Z,50.20
2022-11-13T21:02:34.582Z,47.70
2022-11-13T21:07:34.509Z,43.29
2022-11-13T21:12:34.462Z,41.59
2022-11-13T21:17:34.377Z,57.79
2022-11-13T21:22:34.320Z,42.09
2022-11-13T21:27:34.245Z,45.40
2022-11-13T21:32:34.191Z,43.50
2022-11-13T21:37:34.123Z,37.50
2022-11-13T21:42:34.063Z,39.20
2022-11-13T21:47:33.991Z,45.00
2022-11-13T21:52:33.943Z,39.90
2022-11-13T21:57:33.859Z,40.20
2022-11-13T22:02:33.915Z,45.00
2022-11-13T22:07:33.728Z,35.90
2022-11-13T22:12:33.668Z,29.89
2022-11-13T22:17:33.595Z,33.40
2022-11-13T22:22:33.534Z,30.70
2022-11-13T22:27:33.460Z,29.00
2022-11-13T22:32:33.408Z,23.39
2022-11-13T22:37:33.336Z,24.70
2022-11-13T22:42:33.279Z,23.00
2022-11-13T22:47:37.907Z,23.20
2022-11-13T22:52:33.149Z,22.79
2022-11-13T22:57:33.076Z,21.00
2022-11-13T23:02:33.021Z,19.39
2022-11-13T23:07:32.947Z,22.89
2022-11-13T23:12:32.894Z,22.29
2022-11-13T23:17:32.816Z,23.39
2022-11-13T23:22:32.757Z,21.70
2022-11-13T23:27:32.683Z,21.20
2022-11-13T23:32:32.626Z,21.39
2022-11-13T23:37:32.552Z,23.70
2022-11-13T23:42:53.937Z,22.60
2022-11-13T23:47:33.460Z,21.00
2022-11-13T23:52:32.365Z,24.70
2022-11-13T23:57:32.291Z,27.60
